createdAt,value
2022-08-28T00:01:29.005Z,12.55
2022-08-28T00:03:56.647Z,19.17
2022-08-28T00:06:26.708Z,13.50
2022-08-28T00:08:54.907Z,13.68
2022-08-28T00:11:22.494Z,14.27
2022-08-28T00:13:51.070Z,15.77
2022-08-28T00:16:18.976Z,13.25
2022-08-28T00:18:47.055Z,14.15
2022-08-28T00:21:15.365Z,16.88
2022-08-28T00:23:44.682Z,14.15
2022-08-28T00:26:12.706Z,13.88
2022-08-28T00:28:40.486Z,16.77
2022-08-28T00:31:07.664Z,20.92
2022-08-28T00:33:36.195Z,18.27
2022-08-28T00:36:04.781Z,15.63
2022-08-28T00:38:33.198Z,15.77
2022-08-28T00:41:04.035Z,18.58
2022-08-28T00:43:37.474Z,15.55
2022-08-28T00:46:07.947Z,15.93
2022-08-28T00:48:35.293Z,17.15
2022-08-28T00:51:04.814Z,15.10
2022-08-28T00:53:33.028Z,14.40
2022-08-28T00:56:07.061Z,18.27
2022-08-28T00:58:43.985Z,14.52
2022-08-28T01:01:13.595Z,17.27
2022-08-28T01:03:41.641Z,19.35
2022-08-28T01:06:09.737Z,17.38
2022-08-28T01:08:41.235Z,15.80
2022-08-28T01:11:11.529Z,16.73
2022-08-28T01:13:41.604Z,17.38
2022-08-28T01:16:10.409Z,19.35
2022-08-28T01:18:38.527Z,15.25
2022-08-28T01:21:16.889Z,16.00
2022-08-28T01:23:55.654Z,15.88
2022-08-28T01:26:23.196Z,14.43
2022-08-28T01:28:51.367Z,13.18
2022-08-28T01:31:19.363Z,15.52
2022-08-28T01:33:48.330Z,17.48
2022-08-28T01:36:17.785Z,12.27
2022-08-28T01:38:49.391Z,14.60
2022-08-28T01:41:19.239Z,13.65
2022-08-28T01:43:46.743Z,13.85
2022-08-28T01:46:13.958Z,12.73
2022-08-28T01:48:44.303Z,12.73
2022-08-28T01:51:13.764Z,13.48
2022-08-28T01:53:45.327Z,11.82
2022-08-28T01:56:16.843Z,17.40
2022-08-28T01:58:47.183Z,12.68
2022-08-28T02:01:17.915Z,14.73
2022-08-28T02:03:45.897Z,16.58
2022-08-28T02:06:15.198Z,16.75
2022-08-28T02:08:43.092Z,12.90
2022-08-28T02:11:11.503Z,14.25
2022-08-28T02:13:41.097Z,14.68
2022-08-28T02:16:11.204Z,15.70
2022-08-28T02:18:39.189Z,17.63
2022-08-28T02:21:07.039Z,17.25
2022-08-28T02:23:34.892Z,17.75
2022-08-28T02:26:02.470Z,14.88
2022-08-28T02:28:30.284Z,16.90
2022-08-28T02:30:58.242Z,19.05
2022-08-28T02:33:27.846Z,20.65
2022-08-28T02:35:55.370Z,19.38
2022-08-28T02:38:23.223Z,20.35
2022-08-28T02:40:50.742Z,18.33
2022-08-28T02:43:18.240Z,19.73
2022-08-28T02:45:47.074Z,23.15
2022-08-28T02:48:17.172Z,22.25
2022-08-28T02:50:48.152Z,23.73
2022-08-28T02:53:16.054Z,22.70
2022-08-28T02:55:43.788Z,28.67
2022-08-28T02:58:12.131Z,32.05
2022-08-28T03:00:40.171Z,60.42
2022-08-28T03:03:08.000Z,53.42
2022-08-28T03:05:35.247Z,52.30
2022-08-28T03:08:05.833Z,59.95
2022-08-28T03:10:34.117Z,60.60
2022-08-28T03:13:01.948Z,33.03
2022-08-28T03:15:29.227Z,67.15
2022-08-28T03:17:56.470Z,28.88
2022-08-28T03:20:23.827Z,33.90
2022-08-28T03:22:51.342Z,56.17
2022-08-28T03:25:21.214Z,70.25
2022-08-28T03:27:48.942Z,48.28
2022-08-28T03:30:17.427Z,33.55
2022-08-28T03:32:44.956Z,27.73
2022-08-28T03:35:13.752Z,19.02
2022-08-28T03:37:41.602Z,41.72
2022-08-28T03:40:11.396Z,20.23
2022-08-28T03:42:41.475Z,25.85
2022-08-28T03:45:10.249Z,32.05
2022-08-28T03:47:38.749Z,22.52
2022-08-28T03:50:09.940Z,63.65
2022-08-28T03:52:39.643Z,24.75
2022-08-28T03:55:09.299Z,28.05
2022-08-28T03:57:36.889Z,24.48
2022-08-28T04:00:11.705Z,27.88
2022-08-28T04:02:39.514Z,29.35
2022-08-28T04:05:08.201Z,16.42
2022-08-28T04:07:37.427Z,12.27
2022-08-28T04:10:06.561Z,13.05
2022-08-28T04:12:35.312Z,14.82
2022-08-28T04:15:02.904Z,15.93
2022-08-28T04:17:33.011Z,12.85
2022-08-28T04:20:00.792Z,14.65
2022-08-28T04:22:29.908Z,20.77
2022-08-28T04:24:57.123Z,12.70
2022-08-28T04:27:24.638Z,12.30
2022-08-28T04:29:51.892Z,12.18
2022-08-28T04:32:19.419Z,14.13
2022-08-28T04:34:48.685Z,11.93
2022-08-28T04:37:16.004Z,11.63
2022-08-28T04:39:43.854Z,12.55
2022-08-28T04:42:11.168Z,11.13
2022-08-28T04:44:39.185Z,12.13
2022-08-28T04:47:07.416Z,11.88
2022-08-28T04:49:36.191Z,11.05
2022-08-28T04:52:06.889Z,12.98
2022-08-28T04:54:35.377Z,15.38
2022-08-28T04:57:02.891Z,11.32
2022-08-28T04:59:34.233Z,15.23
2022-08-28T05:02:01.530Z,13.82
2022-08-28T05:04:29.273Z,12.25
2022-08-28T05:06:57.120Z,10.57
2022-08-28T05:09:26.550Z,23.73
2022-08-28T05:11:54.402Z,27.50
2022-08-28T05:14:22.343Z,25.48
2022-08-28T05:16:52.354Z,21.80
2022-08-28T05:19:21.530Z,32.70
2022-08-28T05:21:49.086Z,22.25
2022-08-28T05:24:16.467Z,27.88
2022-08-28T05:26:48.207Z,33.88
2022-08-28T05:29:17.281Z,38.10
2022-08-28T05:31:46.235Z,59.08
2022-08-28T05:34:14.921Z,28.63
2022-08-28T05:36:42.451Z,51.47
2022-08-28T05:39:11.458Z,47.30
2022-08-28T05:41:41.818Z,24.67
2022-08-28T05:44:12.538Z,20.40
2022-08-28T05:46:42.059Z,25.17
2022-08-28T05:49:10.402Z,25.10
2022-08-28T05:51:40.574Z,18.05
2022-08-28T05:54:08.463Z,19.65
2022-08-28T05:56:38.534Z,17.55
2022-08-28T05:59:09.280Z,17.63
2022-08-28T06:01:40.226Z,20.27
2022-08-28T06:04:10.120Z,24.70
2022-08-28T06:06:38.287Z,19.52
2022-08-28T06:09:09.312Z,15.95
2022-08-28T06:11:36.990Z,17.88
2022-08-28T06:14:07.874Z,18.13
2022-08-28T06:16:38.747Z,20.17
2022-08-28T06:19:06.736Z,18.48
2022-08-28T06:21:34.057Z,18.55
2022-08-28T06:24:01.838Z,21.65
2022-08-28T06:26:29.224Z,19.70
2022-08-28T06:29:00.686Z,21.25
2022-08-28T06:31:33.055Z,19.08
2022-08-28T06:34:03.667Z,19.05
2022-08-28T06:36:33.774Z,18.98
2022-08-28T06:39:02.664Z,18.77
2022-08-28T06:41:32.331Z,30.58
2022-08-28T06:44:00.128Z,19.83
2022-08-28T06:46:28.549Z,23.73
2022-08-28T06:48:55.653Z,20.45
2022-08-28T06:51:25.192Z,22.98
2022-08-28T06:53:52.622Z,20.95
2022-08-28T06:56:26.226Z,19.73
2022-08-28T06:58:56.072Z,18.00
2022-08-28T07:01:25.307Z,17.98
2022-08-28T07:03:54.601Z,18.60
2022-08-28T07:06:25.146Z,15.32
2022-08-28T07:08:52.633Z,22.25
2022-08-28T07:11:26.300Z,18.88
2022-08-28T07:13:55.024Z,16.00
2022-08-28T07:16:24.542Z,20.20
2022-08-28T07:18:51.846Z,18.33
2022-08-28T07:21:19.512Z,21.42
2022-08-28T07:23:50.061Z,20.33
2022-08-28T07:26:19.574Z,18.90
2022-08-28T07:28:46.713Z,18.65
2022-08-28T07:31:16.369Z,19.83
2022-08-28T07:33:43.577Z,14.93
2022-08-28T07:36:16.086Z,14.93
2022-08-28T07:38:59.980Z,16.83
2022-08-28T07:41:30.122Z,21.40
2022-08-28T07:43:58.242Z,19.15
2022-08-28T07:46:25.200Z,18.80
2022-08-28T07:48:52.244Z,17.92
2022-08-28T07:51:19.501Z,18.98
2022-08-28T07:53:47.103Z,20.67
2022-08-28T07:56:16.800Z,19.88
2022-08-28T07:58:44.976Z,21.13
2022-08-28T08:01:12.131Z,16.35
2022-08-28T08:03:39.325Z,17.70
2022-08-28T08:06:07.895Z,18.27
2022-08-28T08:08:35.691Z,17.13
2022-08-28T08:11:06.834Z,15.98
2022-08-28T08:13:40.954Z,17.95
2022-08-28T08:16:11.722Z,16.50
2022-08-28T08:18:39.841Z,20.05
2022-08-28T08:21:09.200Z,16.33
2022-08-28T08:23:37.160Z,18.10
2022-08-28T08:26:06.704Z,18.13
2022-08-28T08:28:36.362Z,19.65
2022-08-28T08:31:09.742Z,19.20
2022-08-28T08:33:38.993Z,20.42
2022-08-28T08:36:07.564Z,16.85
2022-08-28T08:38:35.665Z,18.40
2022-08-28T08:41:20.565Z,16.35
2022-08-28T08:46:26.620Z,17.30
2022-08-28T08:48:56.151Z,16.98
2022-08-28T08:51:36.139Z,18.88
2022-08-28T08:54:07.880Z,22.17
2022-08-28T08:56:35.651Z,21.95
2022-08-28T08:59:07.381Z,19.88
2022-08-28T09:01:42.274Z,19.38
2022-08-28T09:04:21.487Z,19.92
2022-08-28T09:06:52.281Z,16.70
2022-08-28T09:09:27.218Z,16.65
2022-08-28T09:11:57.217Z,17.25
2022-08-28T09:14:36.622Z,15.95
2022-08-28T09:17:07.126Z,17.52
2022-08-28T09:19:35.190Z,17.00
2022-08-28T09:22:03.537Z,17.20
2022-08-28T09:24:34.004Z,16.38
2022-08-28T09:27:03.525Z,15.80
2022-08-28T09:29:34.624Z,17.88
2022-08-28T09:32:22.068Z,14.25
2022-08-28T09:35:07.306Z,18.15
2022-08-28T09:37:36.142Z,18.52
2022-08-28T09:40:25.433Z,17.75
2022-08-28T09:43:05.443Z,22.05
2022-08-28T09:45:32.716Z,16.25
2022-08-28T09:48:02.496Z,16.10
2022-08-28T09:50:35.480Z,15.32
2022-08-28T09:53:21.225Z,14.88
2022-08-28T09:55:59.820Z,16.85
2022-08-28T09:58:34.141Z,16.75
2022-08-28T10:01:10.692Z,18.87
2022-08-28T10:03:48.636Z,14.73
2022-08-28T10:06:22.539Z,12.93
2022-08-28T10:09:04.959Z,12.30
2022-08-28T10:11:44.419Z,18.17
2022-08-28T10:14:35.716Z,13.95
2022-08-28T10:17:15.050Z,14.90
2022-08-28T10:20:00.528Z,15.98
2022-08-28T10:22:40.214Z,14.88
2022-08-28T10:25:21.449Z,13.30
2022-08-28T10:28:04.322Z,14.00
2022-08-28T10:30:39.190Z,12.45
2022-08-28T10:33:24.742Z,13.82
2022-08-28T10:36:03.992Z,14.27
2022-08-28T10:38:39.218Z,12.38
2022-08-28T10:41:11.202Z,12.40
2022-08-28T10:43:46.080Z,12.43
2022-08-28T10:46:24.127Z,12.27
2022-08-28T10:49:00.735Z,12.02
2022-08-28T10:51:36.313Z,12.87
2022-08-28T10:54:13.005Z,11.98
2022-08-28T10:56:46.557Z,12.13
2022-08-28T10:59:24.306Z,12.27
2022-08-28T11:01:52.931Z,12.38
2022-08-28T11:04:25.364Z,12.00
2022-08-28T11:06:58.803Z,13.80
2022-08-28T11:09:33.269Z,18.58
2022-08-28T11:12:03.695Z,10.77
2022-08-28T11:14:35.472Z,11.48
2022-08-28T11:17:09.295Z,12.85
2022-08-28T11:19:57.624Z,12.27
2022-08-28T11:22:29.249Z,10.90
2022-08-28T11:25:09.794Z,12.13
2022-08-28T11:27:39.664Z,11.48
2022-08-28T11:30:33.212Z,11.35
2022-08-28T11:33:40.840Z,11.83
2022-08-28T11:36:11.802Z,11.57
2022-08-28T11:39:16.087Z,11.98
2022-08-28T11:42:28.975Z,10.48
2022-08-28T11:44:56.796Z,10.40
2022-08-28T11:47:42.583Z,10.18
2022-08-28T11:50:18.723Z,12.85
2022-08-28T11:53:17.297Z,10.43
2022-08-28T11:56:07.460Z,11.68
2022-08-28T11:58:44.280Z,13.02
2022-08-28T12:01:13.834Z,13.43
2022-08-28T12:03:44.807Z,13.00
2022-08-28T12:06:13.281Z,11.05
2022-08-28T12:09:04.329Z,11.43
2022-08-28T12:11:55.673Z,13.02
2022-08-28T12:15:02.821Z,11.80
2022-08-28T12:17:52.205Z,11.23
2022-08-28T12:20:41.119Z,13.85
2022-08-28T12:23:40.069Z,11.35
2022-08-28T12:26:11.854Z,11.40
2022-08-28T12:28:57.119Z,11.20
2022-08-28T12:31:55.095Z,10.85
2022-08-28T12:34:33.456Z,10.27
2022-08-28T12:37:03.200Z,13.20
2022-08-28T12:39:33.109Z,14.15
2022-08-28T12:42:02.779Z,11.15
2022-08-28T12:44:33.182Z,11.18
2022-08-28T12:47:02.591Z,10.93
2022-08-28T12:49:33.608Z,10.43
2022-08-28T12:52:16.935Z,11.23
2022-08-28T12:54:45.640Z,11.77
2022-08-28T12:57:16.329Z,11.90
2022-08-28T12:59:47.389Z,14.30
2022-08-28T13:02:25.172Z,10.15
2022-08-28T13:04:56.322Z,11.52
2022-08-28T13:07:30.404Z,11.27
2022-08-28T13:10:01.225Z,13.50
2022-08-28T13:12:54.531Z,11.93
2022-08-28T13:15:54.071Z,11.13
2022-08-28T13:18:43.303Z,10.30
2022-08-28T13:21:33.397Z,14.15
2022-08-28T13:24:16.932Z,12.40
2022-08-28T13:26:44.664Z,10.75
2022-08-28T13:29:18.640Z,10.82
2022-08-28T13:31:57.262Z,11.18
2022-08-28T13:34:26.747Z,12.07
2022-08-28T13:36:56.504Z,11.40
2022-08-28T13:39:24.329Z,14.30
2022-08-28T13:41:55.052Z,11.40
2022-08-28T13:44:30.510Z,11.38
2022-08-28T13:47:00.400Z,11.00
2022-08-28T13:49:27.845Z,14.13
2022-08-28T13:51:57.292Z,17.33
2022-08-28T13:54:25.999Z,11.85
2022-08-28T13:56:56.132Z,14.68
2022-08-28T13:59:23.917Z,15.20
2022-08-28T14:01:55.712Z,11.00
2022-08-28T14:04:25.426Z,16.98
2022-08-28T14:06:52.953Z,13.20
2022-08-28T14:09:20.764Z,11.05
2022-08-28T14:11:49.959Z,11.30
2022-08-28T14:14:19.077Z,11.30
2022-08-28T14:16:46.875Z,12.68
2022-08-28T14:19:14.730Z,10.27
2022-08-28T14:21:46.408Z,12.25
2022-08-28T14:24:14.558Z,11.15
2022-08-28T14:26:42.101Z,11.52
2022-08-28T14:29:11.173Z,12.82
2022-08-28T14:31:40.408Z,11.82
2022-08-28T14:34:09.739Z,10.95
2022-08-28T14:36:37.711Z,11.20
2022-08-28T14:39:10.240Z,13.43
2022-08-28T14:41:38.441Z,8.90
2022-08-28T14:44:06.216Z,9.90
2022-08-28T14:46:36.239Z,8.35
2022-08-28T14:49:06.282Z,7.68
2022-08-28T14:51:36.156Z,8.70
2022-08-28T14:54:05.574Z,9.05
2022-08-28T14:56:35.990Z,11.60
2022-08-28T14:59:06.723Z,12.65
2022-08-28T15:01:40.933Z,18.23
2022-08-28T15:04:12.877Z,16.15
2022-08-28T15:06:42.728Z,12.27
2022-08-28T15:09:10.578Z,15.30
2022-08-28T15:11:40.638Z,11.35
2022-08-28T15:14:07.983Z,21.52
2022-08-28T15:16:38.302Z,15.35
2022-08-28T15:19:08.709Z,8.52
2022-08-28T15:21:38.128Z,11.13
2022-08-28T15:24:08.196Z,10.15
2022-08-28T15:26:36.358Z,10.32
2022-08-28T15:29:05.460Z,8.57
2022-08-28T15:31:35.361Z,9.25
2022-08-28T15:34:04.570Z,8.60
2022-08-28T15:36:34.447Z,10.75
2022-08-28T15:39:02.858Z,8.60
2022-08-28T15:41:31.102Z,10.00
2022-08-28T15:44:01.126Z,8.07
2022-08-28T15:46:32.838Z,11.07
2022-08-28T15:49:01.310Z,10.43
2022-08-28T15:51:28.826Z,11.77
2022-08-28T15:53:56.639Z,9.80
2022-08-28T15:56:24.153Z,9.45
2022-08-28T15:58:51.609Z,12.52
2022-08-28T16:01:19.625Z,10.80
2022-08-28T16:03:49.613Z,10.52
2022-08-28T16:06:18.938Z,10.55
2022-08-28T16:08:46.918Z,10.77
2022-08-28T16:11:16.458Z,8.52
2022-08-28T16:13:43.564Z,8.60
2022-08-28T16:16:10.755Z,12.90
2022-08-28T16:18:38.603Z,8.55
2022-08-28T16:21:08.862Z,10.38
2022-08-28T16:23:36.956Z,9.95
2022-08-28T16:26:06.856Z,10.80
2022-08-28T16:28:34.404Z,10.27
2022-08-28T16:31:04.866Z,11.27
2022-08-28T16:33:35.084Z,11.98
2022-08-28T16:36:10.071Z,10.57
2022-08-28T16:38:39.415Z,10.05
2022-08-28T16:41:11.601Z,12.95
2022-08-28T16:43:39.408Z,11.40
2022-08-28T16:46:11.034Z,10.73
2022-08-28T16:48:38.863Z,11.63
2022-08-28T16:51:08.643Z,12.35
2022-08-28T16:53:36.239Z,11.75
2022-08-28T16:56:04.950Z,14.60
2022-08-28T16:58:32.152Z,11.45
2022-08-28T17:00:59.497Z,13.40
2022-08-28T17:03:26.979Z,10.38
2022-08-28T17:05:56.106Z,11.85
2022-08-28T17:08:24.917Z,13.48
2022-08-28T17:10:52.479Z,12.73
2022-08-28T17:13:20.093Z,15.52
2022-08-28T17:15:47.518Z,11.52
2022-08-28T17:18:15.079Z,14.45
2022-08-28T17:20:42.890Z,15.23
2022-08-28T17:23:10.077Z,10.48
2022-08-28T17:25:38.994Z,12.13
2022-08-28T17:28:07.132Z,13.70
2022-08-28T17:30:34.447Z,12.77
2022-08-28T17:33:01.708Z,10.52
2022-08-28T17:35:28.970Z,11.80
2022-08-28T17:37:56.685Z,10.82
2022-08-28T17:40:25.319Z,12.68
2022-08-28T17:42:53.931Z,12.32
2022-08-28T17:45:21.301Z,10.27
2022-08-28T17:47:48.758Z,11.43
2022-08-28T17:50:16.438Z,13.73
2022-08-28T17:52:44.146Z,10.68
2022-08-28T17:55:12.251Z,14.95
2022-08-28T17:57:40.756Z,13.93
2022-08-28T18:00:13.307Z,11.75
2022-08-28T18:02:41.490Z,12.55
2022-08-28T18:05:10.715Z,13.63
2022-08-28T18:07:39.306Z,11.02
2022-08-28T18:10:09.251Z,10.13
2022-08-28T18:12:37.632Z,11.18
2022-08-28T18:15:06.721Z,10.43
2022-08-28T18:17:37.230Z,11.57
2022-08-28T18:20:09.278Z,13.52
2022-08-28T18:22:37.681Z,12.35
2022-08-28T18:25:07.017Z,11.95
2022-08-28T18:27:35.072Z,11.50
2022-08-28T18:30:03.294Z,10.35
2022-08-28T18:32:31.659Z,11.68
2022-08-28T18:35:00.615Z,11.60
2022-08-28T18:37:28.253Z,11.70
2022-08-28T18:39:56.327Z,15.15
2022-08-28T18:42:24.594Z,11.88
2022-08-28T18:44:52.462Z,12.40
2022-08-28T18:47:20.143Z,12.45
2022-08-28T18:49:49.421Z,10.27
2022-08-28T18:52:20.003Z,12.50
2022-08-28T18:54:49.931Z,11.05
2022-08-28T18:57:18.427Z,13.27
2022-08-28T18:59:48.138Z,10.80
2022-08-28T19:02:16.831Z,12.80
2022-08-28T19:04:44.827Z,14.80
2022-08-28T19:07:14.253Z,15.35
2022-08-28T19:09:44.301Z,11.18
2022-08-28T19:12:12.841Z,13.75
2022-08-28T19:14:40.524Z,13.10
2022-08-28T19:17:07.993Z,10.77
2022-08-28T19:19:36.863Z,12.88
2022-08-28T19:22:05.281Z,11.57
2022-08-28T19:24:33.928Z,13.48
2022-08-28T19:27:04.245Z,12.85
2022-08-28T19:29:32.631Z,13.40
2022-08-28T19:32:01.140Z,11.23
2022-08-28T19:34:29.115Z,14.10
2022-08-28T19:36:56.671Z,13.57
2022-08-28T19:39:24.782Z,13.85
2022-08-28T19:41:52.620Z,14.65
2022-08-28T19:44:22.108Z,13.00
2022-08-28T19:46:50.529Z,15.75
2022-08-28T19:49:18.483Z,14.10
2022-08-28T19:51:46.885Z,12.77
2022-08-28T19:54:14.589Z,14.07
2022-08-28T19:56:42.653Z,12.65
2022-08-28T19:59:11.392Z,13.27
2022-08-28T20:01:42.842Z,13.60
2022-08-28T20:04:11.476Z,14.90
2022-08-28T20:06:39.066Z,12.00
2022-08-28T20:09:12.031Z,11.05
2022-08-28T20:11:41.442Z,12.15
2022-08-28T20:14:09.281Z,14.05
2022-08-28T20:16:38.633Z,12.15
2022-08-28T20:19:10.376Z,19.50
2022-08-28T20:21:40.331Z,12.98
2022-08-28T20:24:11.199Z,13.60
2022-08-28T20:26:38.642Z,13.30
2022-08-28T20:29:07.809Z,14.20
2022-08-28T20:31:35.533Z,11.43
2022-08-28T20:34:03.365Z,12.73
2022-08-28T20:36:34.028Z,13.00
2022-08-28T20:39:01.743Z,13.32
2022-08-28T20:41:29.123Z,12.10
2022-08-28T20:43:56.633Z,15.23
2022-08-28T20:46:24.117Z,13.68
2022-08-28T20:48:51.642Z,12.75
2022-08-28T20:51:19.199Z,13.35
2022-08-28T20:53:48.005Z,14.07
2022-08-28T20:56:16.168Z,14.23
2022-08-28T20:58:44.017Z,13.02
2022-08-28T21:01:13.182Z,14.27
2022-08-28T21:03:40.617Z,17.40
2022-08-28T21:06:08.523Z,14.60
2022-08-28T21:08:36.035Z,15.52
2022-08-28T21:11:05.762Z,14.05
2022-08-28T21:13:33.673Z,14.48
2022-08-28T21:16:04.458Z,13.40
2022-08-28T21:18:31.712Z,14.80
2022-08-28T21:20:58.988Z,14.27
2022-08-28T21:23:26.252Z,13.80
2022-08-28T21:25:53.587Z,14.70
2022-08-28T21:28:22.359Z,15.20
2022-08-28T21:30:49.864Z,15.60
2022-08-28T21:33:17.371Z,12.48
2022-08-28T21:35:45.493Z,16.77
2022-08-28T21:38:13.102Z,18.10
2022-08-28T21:40:40.555Z,15.50
2022-08-28T21:43:08.313Z,16.50
2022-08-28T21:45:37.238Z,12.85
2022-08-28T21:48:04.821Z,13.65
2022-08-28T21:50:32.094Z,13.15
2022-08-28T21:52:59.401Z,15.80
2022-08-28T21:55:26.872Z,16.98
2022-08-28T21:57:54.100Z,14.55
2022-08-28T22:00:23.509Z,13.35
2022-08-28T22:02:52.690Z,14.75
2022-08-28T22:05:20.202Z,15.40
2022-08-28T22:07:47.472Z,15.57
2022-08-28T22:10:15.189Z,13.93
2022-08-28T22:12:42.987Z,14.18
2022-08-28T22:15:11.192Z,14.18
2022-08-28T22:17:38.567Z,14.95
2022-08-28T22:20:10.594Z,11.52
2022-08-28T22:22:38.044Z,15.05
2022-08-28T22:25:06.093Z,14.10
2022-08-28T22:27:33.924Z,15.55
2022-08-28T22:30:01.440Z,14.55
2022-08-28T22:32:28.946Z,14.25
2022-08-28T22:34:56.810Z,14.35
2022-08-28T22:37:25.444Z,13.77
2022-08-28T22:39:52.799Z,14.85
2022-08-28T22:42:20.314Z,15.80
2022-08-28T22:44:47.810Z,17.83
2022-08-28T22:47:15.351Z,15.65
2022-08-28T22:49:46.703Z,12.70
2022-08-28T22:52:13.802Z,11.73
2022-08-28T22:54:43.495Z,13.38
2022-08-28T22:57:11.209Z,13.95
2022-08-28T22:59:38.478Z,13.57
2022-08-28T23:02:05.946Z,12.25
2022-08-28T23:04:33.497Z,15.20
2022-08-28T23:07:00.957Z,15.02
2022-08-28T23:09:28.434Z,15.82
2022-08-28T23:12:00.243Z,12.85
2022-08-28T23:14:27.813Z,15.95
2022-08-28T23:16:55.430Z,16.15
2022-08-28T23:19:23.686Z,19.27
2022-08-28T23:21:51.234Z,15.75
2022-08-28T23:24:19.054Z,13.60
2022-08-28T23:26:47.176Z,18.33
2022-08-28T23:29:15.979Z,15.20
2022-08-28T23:31:43.360Z,17.15
2022-08-28T23:34:10.893Z,16.00
2022-08-28T23:36:39.390Z,15.00
2022-08-28T23:39:10.570Z,17.17
2022-08-28T23:41:38.724Z,15.27
2022-08-28T23:44:08.973Z,16.67
2022-08-28T23:46:41.662Z,15.75
2022-08-28T23:49:10.278Z,15.55
2022-08-28T23:51:37.604Z,17.15
2022-08-28T23:54:04.970Z,20.63
2022-08-28T23:56:33.452Z,15.13
2022-08-28T23:59:01.160Z,13.48
